sensor_id;sensor_type;location;lat;lon;timestamp;temperature;humidity
6752;DHT22;3413;47.680;9.166;2023-03-12T00:03:02;9.00;91.20
6752;DHT22;3413;47.680;9.166;2023-03-12T00:08:05;9.10;91.20
6752;DHT22;3413;47.680;9.166;2023-03-12T00:13:07;9.10;91.20
6752;DHT22;3413;47.680;9.166;2023-03-12T00:18:09;9.10;91.10
6752;DHT22;3413;47.680;9.166;2023-03-12T00:23:11;9.00;91.10
6752;DHT22;3413;47.680;9.166;2023-03-12T00:28:13;9.00;91.10
6752;DHT22;3413;47.680;9.166;2023-03-12T00:33:15;9.10;91.20
6752;DHT22;3413;47.680;9.166;2023-03-12T00:38:17;9.10;91.30
6752;DHT22;3413;47.680;9.166;2023-03-12T00:43:19;9.10;91.30
6752;DHT22;3413;47.680;9.166;2023-03-12T00:48:21;9.10;91.40
6752;DHT22;3413;47.680;9.166;2023-03-12T00:53:23;9.10;91.30
6752;DHT22;3413;47.680;9.166;2023-03-12T00:58:24;9.10;91.30
6752;DHT22;3413;47.680;9.166;2023-03-12T01:03:26;9.10;91.30
6752;DHT22;3413;47.680;9.166;2023-03-12T01:08:29;9.10;91.30
6752;DHT22;3413;47.680;9.166;2023-03-12T01:13:31;9.20;91.30
6752;DHT22;3413;47.680;9.166;2023-03-12T01:18:33;9.20;91.30
6752;DHT22;3413;47.680;9.166;2023-03-12T01:23:36;9.30;91.40
6752;DHT22;3413;47.680;9.166;2023-03-12T01:28:38;9.10;91.30
6752;DHT22;3413;47.680;9.166;2023-03-12T01:33:40;8.90;91.20
6752;DHT22;3413;47.680;9.166;2023-03-12T01:38:42;9.00;91.20
6752;DHT22;3413;47.680;9.166;2023-03-12T01:43:45;9.00;91.20
6752;DHT22;3413;47.680;9.166;2023-03-12T01:48:52;9.00;91.20
6752;DHT22;3413;47.680;9.166;2023-03-12T01:53:58;8.90;91.20
6752;DHT22;3413;47.680;9.166;2023-03-12T01:59:15;8.90;91.20
6752;DHT22;3413;47.680;9.166;2023-03-12T02:04:20;9.00;91.30
6752;DHT22;3413;47.680;9.166;2023-03-12T02:09:23;9.00;91.30
6752;DHT22;3413;47.680;9.166;2023-03-12T02:14:26;9.10;91.30
6752;DHT22;3413;47.680;9.166;2023-03-12T02:25:25;9.10;91.30
6752;DHT22;3413;47.680;9.166;2023-03-12T02:30:29;9.10;91.40
6752;DHT22;3413;47.680;9.166;2023-03-12T02:35:32;9.00;91.30
6752;DHT22;3413;47.680;9.166;2023-03-12T02:40:39;9.00;91.30
6752;DHT22;3413;47.680;9.166;2023-03-12T02:45:43;9.10;91.30
6752;DHT22;3413;47.680;9.166;2023-03-12T02:50:45;9.10;91.20
6752;DHT22;3413;47.680;9.166;2023-03-12T02:55:47;9.00;91.20
6752;DHT22;3413;47.680;9.166;2023-03-12T03:00:49;9.10;91.50
6752;DHT22;3413;47.680;9.166;2023-03-12T03:05:51;9.10;91.20
6752;DHT22;3413;47.680;9.166;2023-03-12T03:10:53;9.00;91.50
6752;DHT22;3413;47.680;9.166;2023-03-12T03:15:56;9.00;91.30
6752;DHT22;3413;47.680;9.166;2023-03-12T03:21:03;9.10;91.30
6752;DHT22;3413;47.680;9.166;2023-03-12T03:26:06;9.20;91.40
6752;DHT22;3413;47.680;9.166;2023-03-12T03:31:08;9.20;91.40
6752;DHT22;3413;47.680;9.166;2023-03-12T03:36:13;9.20;91.40
6752;DHT22;3413;47.680;9.166;2023-03-12T03:41:30;9.20;91.40
6752;DHT22;3413;47.680;9.166;2023-03-12T03:46:33;9.20;91.30
6752;DHT22;3413;47.680;9.166;2023-03-12T03:51:42;9.20;91.30
6752;DHT22;3413;47.680;9.166;2023-03-12T03:56:47;9.20;91.30
6752;DHT22;3413;47.680;9.166;2023-03-12T04:01:49;9.00;91.30
6752;DHT22;3413;47.680;9.166;2023-03-12T04:06:51;9.10;91.40
6752;DHT22;3413;47.680;9.166;2023-03-12T04:11:53;8.90;91.20
6752;DHT22;3413;47.680;9.166;2023-03-12T04:16:56;8.70;91.30
6752;DHT22;3413;47.680;9.166;2023-03-12T04:21:58;8.70;91.40
6752;DHT22;3413;47.680;9.166;2023-03-12T04:27:00;8.90;91.50
6752;DHT22;3413;47.680;9.166;2023-03-12T04:32:02;8.80;91.40
6752;DHT22;3413;47.680;9.166;2023-03-12T04:37:05;8.70;91.40
6752;DHT22;3413;47.680;9.166;2023-03-12T04:42:08;8.70;91.50
6752;DHT22;3413;47.680;9.166;2023-03-12T04:47:11;8.80;91.50
6752;DHT22;3413;47.680;9.166;2023-03-12T04:52:13;8.80;91.40
6752;DHT22;3413;47.680;9.166;2023-03-12T04:57:15;8.80;91.50
6752;DHT22;3413;47.680;9.166;2023-03-12T05:02:18;9.00;91.60
6752;DHT22;3413;47.680;9.166;2023-03-12T05:07:21;9.10;91.70
6752;DHT22;3413;47.680;9.166;2023-03-12T05:12:23;9.30;91.70
6752;DHT22;3413;47.680;9.166;2023-03-12T05:17:25;9.40;91.80
6752;DHT22;3413;47.680;9.166;2023-03-12T05:22:27;9.40;91.80
6752;DHT22;3413;47.680;9.166;2023-03-12T05:27:29;9.50;91.80
6752;DHT22;3413;47.680;9.166;2023-03-12T05:32:33;9.60;91.90
6752;DHT22;3413;47.680;9.166;2023-03-12T05:37:35;9.50;91.90
6752;DHT22;3413;47.680;9.166;2023-03-12T05:42:37;9.40;91.90
6752;DHT22;3413;47.680;9.166;2023-03-12T05:47:41;9.30;91.80
6752;DHT22;3413;47.680;9.166;2023-03-12T05:52:43;9.30;91.80
6752;DHT22;3413;47.680;9.166;2023-03-12T05:57:46;9.30;91.80
6752;DHT22;3413;47.680;9.166;2023-03-12T06:02:48;9.20;91.80
6752;DHT22;3413;47.680;9.166;2023-03-12T06:07:50;9.30;91.90
6752;DHT22;3413;47.680;9.166;2023-03-12T06:12:53;9.40;91.90
6752;DHT22;3413;47.680;9.166;2023-03-12T06:17:55;9.30;91.90
6752;DHT22;3413;47.680;9.166;2023-03-12T06:22:57;9.30;92.00
6752;DHT22;3413;47.680;9.166;2023-03-12T06:27:59;9.40;92.10
6752;DHT22;3413;47.680;9.166;2023-03-12T06:33:01;9.50;92.10
6752;DHT22;3413;47.680;9.166;2023-03-12T06:38:05;9.60;92.20
6752;DHT22;3413;47.680;9.166;2023-03-12T06:43:07;9.60;92.30
6752;DHT22;3413;47.680;9.166;2023-03-12T06:48:13;9.70;92.30
6752;DHT22;3413;47.680;9.166;2023-03-12T06:53:15;9.70;92.30
6752;DHT22;3413;47.680;9.166;2023-03-12T06:58:18;9.80;92.70
6752;DHT22;3413;47.680;9.166;2023-03-12T07:03:20;9.70;92.40
6752;DHT22;3413;47.680;9.166;2023-03-12T07:08:23;9.70;92.40
6752;DHT22;3413;47.680;9.166;2023-03-12T07:13:25;9.60;92.40
6752;DHT22;3413;47.680;9.166;2023-03-12T07:18:27;9.60;92.40
6752;DHT22;3413;47.680;9.166;2023-03-12T07:23:29;9.60;92.50
6752;DHT22;3413;47.680;9.166;2023-03-12T07:28:31;9.70;92.60
6752;DHT22;3413;47.680;9.166;2023-03-12T07:33:34;9.70;92.60
6752;DHT22;3413;47.680;9.166;2023-03-12T07:38:36;9.80;92.70
6752;DHT22;3413;47.680;9.166;2023-03-12T07:43:38;9.90;92.80
6752;DHT22;3413;47.680;9.166;2023-03-12T07:48:40;9.90;92.80
6752;DHT22;3413;47.680;9.166;2023-03-12T07:53:45;10.00;92.40
6752;DHT22;3413;47.680;9.166;2023-03-12T07:58:47;10.10;92.50
6752;DHT22;3413;47.680;9.166;2023-03-12T08:03:49;10.30;92.60
6752;DHT22;3413;47.680;9.166;2023-03-12T08:08:52;10.40;92.50
6752;DHT22;3413;47.680;9.166;2023-03-12T08:13:53;10.40;92.40
6752;DHT22;3413;47.680;9.166;2023-03-12T08:18:56;10.40;92.50
6752;DHT22;3413;47.680;9.166;2023-03-12T08:23:58;10.40;92.60
6752;DHT22;3413;47.680;9.166;2023-03-12T08:29:00;10.50;92.70
6752;DHT22;3413;47.680;9.166;2023-03-12T08:34:02;10.60;92.80
6752;DHT22;3413;47.680;9.166;2023-03-12T08:39:04;10.70;92.90
6752;DHT22;3413;47.680;9.166;2023-03-12T08:44:06;10.70;92.90
6752;DHT22;3413;47.680;9.166;2023-03-12T08:49:08;10.80;93.00
6752;DHT22;3413;47.680;9.166;2023-03-12T08:54:10;10.90;93.10
6752;DHT22;3413;47.680;9.166;2023-03-12T08:59:12;10.90;93.10
6752;DHT22;3413;47.680;9.166;2023-03-12T09:04:14;10.90;93.10
6752;DHT22;3413;47.680;9.166;2023-03-12T09:09:17;10.90;93.20
6752;DHT22;3413;47.680;9.166;2023-03-12T09:14:19;10.90;93.20
6752;DHT22;3413;47.680;9.166;2023-03-12T09:19:40;10.90;93.20
6752;DHT22;3413;47.680;9.166;2023-03-12T09:24:42;11.00;93.30
6752;DHT22;3413;47.680;9.166;2023-03-12T09:29:44;11.00;93.30
6752;DHT22;3413;47.680;9.166;2023-03-12T09:35:01;11.10;93.50
6752;DHT22;3413;47.680;9.166;2023-03-12T09:40:03;11.20;93.50
6752;DHT22;3413;47.680;9.166;2023-03-12T09:45:31;11.30;93.60
6752;DHT22;3413;47.680;9.166;2023-03-12T09:50:37;11.30;93.70
6752;DHT22;3413;47.680;9.166;2023-03-12T09:55:46;11.40;93.80
6752;DHT22;3413;47.680;9.166;2023-03-12T10:00:52;11.50;93.90
6752;DHT22;3413;47.680;9.166;2023-03-12T10:26:57;11.90;94.40
6752;DHT22;3413;47.680;9.166;2023-03-12T10:32:16;11.90;94.50
6752;DHT22;3413;47.680;9.166;2023-03-12T10:38:33;11.90;94.50
6752;DHT22;3413;47.680;9.166;2023-03-12T10:43:16;12.00;94.60
6752;DHT22;3413;47.680;9.166;2023-03-12T10:48:20;12.10;94.80
6752;DHT22;3413;47.680;9.166;2023-03-12T10:53:26;12.20;94.80
6752;DHT22;3413;47.680;9.166;2023-03-12T10:58:51;12.30;94.80
6752;DHT22;3413;47.680;9.166;2023-03-12T11:04:29;12.50;95.00
6752;DHT22;3413;47.680;9.166;2023-03-12T11:09:31;12.60;94.90
6752;DHT22;3413;47.680;9.166;2023-03-12T11:14:33;12.60;94.80
6752;DHT22;3413;47.680;9.166;2023-03-12T11:19:38;12.60;94.90
6752;DHT22;3413;47.680;9.166;2023-03-12T11:25:00;12.70;95.20
6752;DHT22;3413;47.680;9.166;2023-03-12T11:30:05;12.70;95.00
6752;DHT22;3413;47.680;9.166;2023-03-12T11:35:27;12.70;95.00
6752;DHT22;3413;47.680;9.166;2023-03-12T11:40:41;12.70;95.10
6752;DHT22;3413;47.680;9.166;2023-03-12T11:56:51;12.80;95.40
6752;DHT22;3413;47.680;9.166;2023-03-12T12:18:44;13.00;95.70
6752;DHT22;3413;47.680;9.166;2023-03-12T12:29:20;13.10;95.90
6752;DHT22;3413;47.680;9.166;2023-03-12T12:39:40;13.20;96.00
6752;DHT22;3413;47.680;9.166;2023-03-12T12:44:50;13.40;96.40
6752;DHT22;3413;47.680;9.166;2023-03-12T12:49:55;13.60;96.30
6752;DHT22;3413;47.680;9.166;2023-03-12T13:00:29;14.10;96.60
6752;DHT22;3413;47.680;9.166;2023-03-12T13:10:39;14.50;96.60
6752;DHT22;3413;47.680;9.166;2023-03-12T13:16:40;14.70;96.70
6752;DHT22;3413;47.680;9.166;2023-03-12T13:27:28;14.90;96.40
6752;DHT22;3413;47.680;9.166;2023-03-12T13:43:01;15.10;96.70
6752;DHT22;3413;47.680;9.166;2023-03-12T13:48:13;15.30;96.80
6752;DHT22;3413;47.680;9.166;2023-03-12T13:53:21;15.50;96.70
6752;DHT22;3413;47.680;9.166;2023-03-12T13:58:26;15.50;96.60
6752;DHT22;3413;47.680;9.166;2023-03-12T14:03:49;15.40;96.50
6752;DHT22;3413;47.680;9.166;2023-03-12T14:09:06;15.30;96.40
6752;DHT22;3413;47.680;9.166;2023-03-12T14:19:47;15.10;96.20
6752;DHT22;3413;47.680;9.166;2023-03-12T14:24:53;15.00;96.20
6752;DHT22;3413;47.680;9.166;2023-03-12T14:30:20;15.20;96.40
6752;DHT22;3413;47.680;9.166;2023-03-12T14:40:46;15.30;96.30
6752;DHT22;3413;47.680;9.166;2023-03-12T14:45:54;15.40;96.50
6752;DHT22;3413;47.680;9.166;2023-03-12T14:50:58;15.70;96.70
6752;DHT22;3413;47.680;9.166;2023-03-12T14:56:06;16.00;96.70
6752;DHT22;3413;47.680;9.166;2023-03-12T15:01:13;16.30;96.80
6752;DHT22;3413;47.680;9.166;2023-03-12T15:06:30;16.40;96.80
6752;DHT22;3413;47.680;9.166;2023-03-12T15:11:35;16.40;96.60
6752;DHT22;3413;47.680;9.166;2023-03-12T15:16:38;16.30;96.40
6752;DHT22;3413;47.680;9.166;2023-03-12T15:21:40;16.10;96.30
6752;DHT22;3413;47.680;9.166;2023-03-12T15:26:42;16.00;96.10
6752;DHT22;3413;47.680;9.166;2023-03-12T15:31:48;15.90;96.10
6752;DHT22;3413;47.680;9.166;2023-03-12T15:36:51;15.90;96.20
6752;DHT22;3413;47.680;9.166;2023-03-12T15:41:59;15.90;96.10
6752;DHT22;3413;47.680;9.166;2023-03-12T15:47:05;15.90;96.00
6752;DHT22;3413;47.680;9.166;2023-03-12T15:57:25;15.80;96.10
6752;DHT22;3413;47.680;9.166;2023-03-12T16:03:01;15.80;96.00
6752;DHT22;3413;47.680;9.166;2023-03-12T16:08:18;15.90;96.10
6752;DHT22;3413;47.680;9.166;2023-03-12T16:13:31;16.00;96.10
6752;DHT22;3413;47.680;9.166;2023-03-12T16:18:41;16.00;96.00
6752;DHT22;3413;47.680;9.166;2023-03-12T16:23:51;15.80;96.00
6752;DHT22;3413;47.680;9.166;2023-03-12T16:28:58;15.70;95.90
6752;DHT22;3413;47.680;9.166;2023-03-12T16:34:02;15.70;95.90
6752;DHT22;3413;47.680;9.166;2023-03-12T16:39:28;15.60;95.80
6752;DHT22;3413;47.680;9.166;2023-03-12T16:44:36;15.50;95.70
6752;DHT22;3413;47.680;9.166;2023-03-12T16:49:45;15.50;95.80
6752;DHT22;3413;47.680;9.166;2023-03-12T16:54:48;15.60;96.00
6752;DHT22;3413;47.680;9.166;2023-03-12T16:59:53;15.60;95.90
6752;DHT22;3413;47.680;9.166;2023-03-12T17:05:09;15.60;95.70
6752;DHT22;3413;47.680;9.166;2023-03-12T17:10:16;15.70;95.90
6752;DHT22;3413;47.680;9.166;2023-03-12T17:15:28;15.70;96.00
6752;DHT22;3413;47.680;9.166;2023-03-12T17:20:38;15.70;96.00
6752;DHT22;3413;47.680;9.166;2023-03-12T17:25:44;15.60;96.00
6752;DHT22;3413;47.680;9.166;2023-03-12T17:30:47;15.50;96.00
6752;DHT22;3413;47.680;9.166;2023-03-12T17:36:02;15.30;95.90
6752;DHT22;3413;47.680;9.166;2023-03-12T17:41:09;15.20;96.10
6752;DHT22;3413;47.680;9.166;2023-03-12T17:46:40;15.00;96.00
6752;DHT22;3413;47.680;9.166;2023-03-12T17:52:05;14.90;96.10
6752;DHT22;3413;47.680;9.166;2023-03-12T17:57:07;14.80;96.00
6752;DHT22;3413;47.680;9.166;2023-03-12T18:02:12;14.70;95.90
6752;DHT22;3413;47.680;9.166;2023-03-12T18:07:15;14.80;96.00
6752;DHT22;3413;47.680;9.166;2023-03-12T18:12:17;14.80;96.20
6752;DHT22;3413;47.680;9.166;2023-03-12T18:17:19;15.00;96.00
6752;DHT22;3413;47.680;9.166;2023-03-12T18:22:21;15.10;96.00
6752;DHT22;3413;47.680;9.166;2023-03-12T18:27:23;15.20;96.10
6752;DHT22;3413;47.680;9.166;2023-03-12T18:32:25;15.20;96.00
6752;DHT22;3413;47.680;9.166;2023-03-12T18:37:28;15.20;96.00
6752;DHT22;3413;47.680;9.166;2023-03-12T18:42:30;15.10;96.00
6752;DHT22;3413;47.680;9.166;2023-03-12T18:47:32;15.00;96.00
6752;DHT22;3413;47.680;9.166;2023-03-12T18:52:35;14.90;95.90
6752;DHT22;3413;47.680;9.166;2023-03-12T18:57:37;14.80;95.90
6752;DHT22;3413;47.680;9.166;2023-03-12T19:02:40;14.70;95.80
6752;DHT22;3413;47.680;9.166;2023-03-12T19:07:43;14.60;95.80
6752;DHT22;3413;47.680;9.166;2023-03-12T19:12:45;14.60;95.80
6752;DHT22;3413;47.680;9.166;2023-03-12T19:17:54;14.60;95.70
6752;DHT22;3413;47.680;9.166;2023-03-12T19:22:56;14.60;95.70
6752;DHT22;3413;47.680;9.166;2023-03-12T19:27:58;14.50;95.60
6752;DHT22;3413;47.680;9.166;2023-03-12T19:33:00;14.30;95.60
6752;DHT22;3413;47.680;9.166;2023-03-12T19:38:02;14.00;95.60
6752;DHT22;3413;47.680;9.166;2023-03-12T19:43:05;13.80;95.60
6752;DHT22;3413;47.680;9.166;2023-03-12T19:48:07;13.70;95.60
6752;DHT22;3413;47.680;9.166;2023-03-12T19:53:10;13.50;95.40
6752;DHT22;3413;47.680;9.166;2023-03-12T19:58:12;13.40;95.40
6752;DHT22;3413;47.680;9.166;2023-03-12T20:03:16;13.30;95.40
6752;DHT22;3413;47.680;9.166;2023-03-12T20:08:18;13.30;95.40
6752;DHT22;3413;47.680;9.166;2023-03-12T20:13:21;13.50;95.40
6752;DHT22;3413;47.680;9.166;2023-03-12T20:18:23;13.50;95.30
6752;DHT22;3413;47.680;9.166;2023-03-12T20:23:25;13.40;95.40
6752;DHT22;3413;47.680;9.166;2023-03-12T20:28:27;13.40;95.40
6752;DHT22;3413;47.680;9.166;2023-03-12T20:33:29;13.30;95.40
6752;DHT22;3413;47.680;9.166;2023-03-12T20:38:31;13.20;95.40
6752;DHT22;3413;47.680;9.166;2023-03-12T20:43:33;13.30;95.40
6752;DHT22;3413;47.680;9.166;2023-03-12T20:48:35;13.40;95.40
6752;DHT22;3413;47.680;9.166;2023-03-12T20:53:37;13.40;95.30
6752;DHT22;3413;47.680;9.166;2023-03-12T20:58:39;13.50;95.30
6752;DHT22;3413;47.680;9.166;2023-03-12T21:03:41;13.40;95.20
6752;DHT22;3413;47.680;9.166;2023-03-12T21:08:43;13.20;95.30
6752;DHT22;3413;47.680;9.166;2023-03-12T21:13:45;13.20;95.20
6752;DHT22;3413;47.680;9.166;2023-03-12T21:18:47;13.10;95.00
6752;DHT22;3413;47.680;9.166;2023-03-12T21:23:50;13.10;95.00
6752;DHT22;3413;47.680;9.166;2023-03-12T21:28:53;13.10;95.00
6752;DHT22;3413;47.680;9.166;2023-03-12T21:33:56;13.00;95.00
6752;DHT22;3413;47.680;9.166;2023-03-12T21:39:02;13.00;95.00
6752;DHT22;3413;47.680;9.166;2023-03-12T21:44:04;13.00;95.00
6752;DHT22;3413;47.680;9.166;2023-03-12T21:49:07;13.00;95.10
6752;DHT22;3413;47.680;9.166;2023-03-12T21:54:09;13.20;95.20
6752;DHT22;3413;47.680;9.166;2023-03-12T21:59:12;13.20;95.10
6752;DHT22;3413;47.680;9.166;2023-03-12T22:04:14;13.20;95.20
6752;DHT22;3413;47.680;9.166;2023-03-12T22:09:16;13.20;95.30
6752;DHT22;3413;47.680;9.166;2023-03-12T22:14:18;13.20;95.30
6752;DHT22;3413;47.680;9.166;2023-03-12T22:19:20;13.20;95.30
6752;DHT22;3413;47.680;9.166;2023-03-12T22:24:22;13.20;95.30
6752;DHT22;3413;47.680;9.166;2023-03-12T22:29:24;13.20;95.30
6752;DHT22;3413;47.680;9.166;2023-03-12T22:34:26;13.20;95.20
6752;DHT22;3413;47.680;9.166;2023-03-12T22:39:30;13.20;95.20
6752;DHT22;3413;47.680;9.166;2023-03-12T22:44:32;13.30;95.20
6752;DHT22;3413;47.680;9.166;2023-03-12T22:49:33;13.30;95.20
6752;DHT22;3413;47.680;9.166;2023-03-12T22:54:35;13.30;95.20
6752;DHT22;3413;47.680;9.166;2023-03-12T22:59:37;13.20;95.50
6752;DHT22;3413;47.680;9.166;2023-03-12T23:04:39;13.30;95.30
6752;DHT22;3413;47.680;9.166;2023-03-12T23:09:41;13.30;95.30
6752;DHT22;3413;47.680;9.166;2023-03-12T23:14:43;13.30;95.30
6752;DHT22;3413;47.680;9.166;2023-03-12T23:19:45;13.20;95.20
6752;DHT22;3413;47.680;9.166;2023-03-12T23:24:47;13.30;95.30
6752;DHT22;3413;47.680;9.166;2023-03-12T23:29:51;13.20;95.20
6752;DHT22;3413;47.680;9.166;2023-03-12T23:34:52;13.10;95.20
6752;DHT22;3413;47.680;9.166;2023-03-12T23:39:54;13.20;95.20
6752;DHT22;3413;47.680;9.166;2023-03-12T23:44:56;13.10;95.20
6752;DHT22;3413;47.680;9.166;2023-03-12T23:49:58;13.10;95.20
6752;DHT22;3413;47.680;9.166;2023-03-12T23:55:00;13.20;95.30
